Terminal Aerodrome Forecast
Issued by NWS Wilmington, OH

Current Version | Previous Version | Text Only | Print | Product List | Glossary Off
Versions: 1 2 3 4 5 6 7 8 9 10 11 12 13 14 15 16 17

219
FTUS41 KILN 160541
TAFILN
TAF
KILN 160541Z 1606/1706 00000KT P6SM SCT250
     FM160800 00000KT 3SM BR SCT250
      TEMPO 1608/1612 1SM BR SCT010
     FM161300 16003KT P6SM SCT040
     FM162100 17007KT P6SM VCSH BKN045
     FM170200 16006KT P6SM SCT050 BKN150=

USA.gov is the U.S. government's official web portal to all federal, state and local government web resources and services.